Highland, New York
Current Conditions -  °F | °C
As of 12:53 PM on Sunday 21 Dec 2014 (Local Time) from KPOU Reporting Station
Overcast Overcast  
Wind Chill: 27°   Ceiling: 1100
Heat Index: 32°   Visibility: 9mi
Dew Point: 27°   Wind: 5mph
Humidity: 82%   Direction: 340°NNW
Pressure: 30.3"   Gusts: NA
Location:  41.72°N, 73.96°W
Report Text: KPOU 211753Z 34004KT 9SM OVC011 00/M03 A3030 RMK AO2 SNE08 SLP260 P0000 60000 T00001028 10000 21017 58011
Loading
Personal Weather Stations






























Interactive Weather Map New forecast layout! Learn more

10-Day Weather Forecast

Advertisements
Track Severe Weather on mobile